Time;durP1;ratioP1;P1;durP2;ratioP2;P2;SDS_P1;SDS_P2;PMS_P1;PMS_P2;Temp;Humidity;BMP_temperature;BMP_pressure;BME280_temperature;BME280_humidity;BME280_pressure;Samples;Min_cycle;Max_cycle;Signal;HPM_P1;HPM_P2
2023/09/12 00:00:42;;;;;;;12.68;11.05;;;26.00;88.50;;;;;;5075185;28;20566;-83
2023/09/12 00:03:08;;;;;;;16.55;14.80;;;26.00;88.80;;;;;;5074956;28;20029;-85
2023/09/12 00:05:34;;;;;;;19.27;16.00;;;26.00;88.90;;;;;;5058134;28;20416;-85
2023/09/12 00:08:00;;;;;;;16.13;11.98;;;26.10;88.60;;;;;;5076682;28;20036;-84
2023/09/12 00:10:26;;;;;;;11.25;9.57;;;26.10;88.70;;;;;;5077321;28;20033;-84
2023/09/12 00:12:51;;;;;;;12.45;10.75;;;26.10;88.70;;;;;;5077588;28;20067;-85
2023/09/12 00:15:19;;;;;;;13.30;11.52;;;26.20;88.80;;;;;;5075308;28;20036;-85
2023/09/12 00:17:44;;;;;;;12.27;10.98;;;26.30;88.70;;;;;;5075544;28;20036;-84
2023/09/12 00:20:11;;;;;;;13.55;10.63;;;26.30;88.50;;;;;;5075703;28;20427;-85
2023/09/12 00:22:37;;;;;;;14.20;11.55;;;26.30;88.40;;;;;;5057694;28;20086;-85
2023/09/12 00:25:03;;;;;;;9.48;8.48;;;26.40;88.40;;;;;;5057122;28;20037;-86
2023/09/12 00:27:28;;;;;;;11.13;9.93;;;26.40;88.30;;;;;;5075578;28;20032;-85
2023/09/12 00:29:54;;;;;;;14.70;11.85;;;26.50;88.30;;;;;;5075667;28;20111;-85
2023/09/12 00:32:20;;;;;;;12.23;9.13;;;26.50;88.10;;;;;;5075145;28;20497;-86
2023/09/12 00:34:45;;;;;;;15.10;10.85;;;26.50;88.10;;;;;;5076193;28;20033;-86
2023/09/12 00:37:11;;;;;;;11.75;10.20;;;26.40;88.10;;;;;;5075660;28;20025;-88
2023/09/12 00:39:37;;;;;;;12.43;10.95;;;26.50;88.10;;;;;;5057945;28;20029;-87
2023/09/12 00:42:03;;;;;;;12.82;10.75;;;26.50;87.90;;;;;;5057132;28;20048;-85
2023/09/12 00:44:29;;;;;;;11.27;9.93;;;26.50;87.70;;;;;;5073678;28;20025;-85
2023/09/12 00:46:55;;;;;;;20.60;15.48;;;26.50;87.50;;;;;;5057203;28;20059;-86
2023/09/12 00:49:22;;;;;;;14.65;11.90;;;26.50;87.30;;;;;;5074504;28;20029;-84
2023/09/12 00:51:50;;;;;;;13.77;12.20;;;26.50;87.10;;;;;;5074240;28;20033;-84
2023/09/12 00:54:16;;;;;;;16.17;13.30;;;26.40;87.10;;;;;;5073975;28;20102;-84
2023/09/12 00:56:42;;;;;;;13.95;12.13;;;26.30;87.40;;;;;;5074155;28;20104;-84
2023/09/12 00:59:10;;;;;;;14.93;11.25;;;26.20;87.70;;;;;;5073819;28;20396;-84
2023/09/12 01:01:36;;;;;;;13.50;11.23;;;26.20;88.00;;;;;;5072472;28;20043;-83
2023/09/12 01:04:02;;;;;;;15.65;11.75;;;26.30;88.10;;;;;;5073950;28;20467;-83
2023/09/12 01:06:30;;;;;;;22.17;17.38;;;26.20;88.00;;;;;;5074276;28;20021;-84
2023/09/12 01:08:56;;;;;;;14.48;12.07;;;26.20;88.00;;;;;;5073632;28;20036;-83
2023/09/12 01:11:22;;;;;;;14.75;11.82;;;26.20;87.80;;;;;;5072672;28;20405;-83
2023/09/12 01:13:48;;;;;;;24.67;19.02;;;26.10;88.20;;;;;;5055970;28;20040;-84
2023/09/12 01:16:13;;;;;;;17.92;15.10;;;26.10;88.10;;;;;;5055980;28;20550;-84
2023/09/12 01:18:41;;;;;;;14.52;10.73;;;26.00;88.00;;;;;;5056412;28;20029;-84
2023/09/12 01:21:49;;;;;;;10.68;8.95;;;26.00;88.30;;;;;;5074030;28;20056;-84
2023/09/12 01:24:34;;;;;;;13.82;10.88;;;25.90;88.70;;;;;;5044923;28;20071;-82
2023/09/12 01:27:12;;;;;;;10.52;9.43;;;26.00;88.70;;;;;;5073309;28;20021;-83
2023/09/12 01:29:38;;;;;;;11.55;9.23;;;26.00;89.00;;;;;;5073423;28;20028;-82
2023/09/12 01:32:05;;;;;;;14.13;10.88;;;26.00;88.90;;;;;;5056401;28;20471;-82
2023/09/12 01:34:30;;;;;;;14.38;10.75;;;26.10;88.90;;;;;;5073553;28;20039;-82
2023/09/12 01:36:56;;;;;;;10.05;9.10;;;26.00;88.70;;;;;;5073897;28;20032;-82
2023/09/12 01:39:21;;;;;;;10.25;9.25;;;26.10;88.80;;;;;;5074417;28;20104;-83
2023/09/12 01:41:49;;;;;;;14.30;12.05;;;26.10;88.80;;;;;;5059348;28;20056;-78
2023/09/12 01:44:16;;;;;;;13.38;10.85;;;26.10;88.90;;;;;;5077160;28;20071;-83
2023/09/12 01:46:43;;;;;;;14.10;11.98;;;26.10;88.90;;;;;;5078092;28;20040;-84
2023/09/12 01:49:10;;;;;;;11.65;9.73;;;26.10;88.80;;;;;;5077383;28;20068;-83
2023/09/12 01:51:36;;;;;;;9.60;7.97;;;26.10;88.80;;;;;;5059908;28;20036;-83
2023/09/12 01:54:03;;;;;;;11.70;10.45;;;26.20;88.90;;;;;;5077731;28;20449;-84
2023/09/12 01:56:30;;;;;;;9.85;8.73;;;26.10;88.70;;;;;;5059270;28;20548;-84
2023/09/12 01:58:57;;;;;;;11.77;9.57;;;26.20;88.80;;;;;;5078065;28;20064;-84
2023/09/12 02:01:22;;;;;;;9.73;8.73;;;26.20;88.90;;;;;;5059561;28;20120;-83
2023/09/12 02:03:48;;;;;;;12.27;10.27;;;26.20;88.80;;;;;;5059707;28;20516;-83
2023/09/12 02:06:13;;;;;;;13.88;11.30;;;26.20;88.70;;;;;;5076844;28;20040;-83
2023/09/12 02:08:39;;;;;;;10.70;9.43;;;26.20;88.70;;;;;;5075493;28;20474;-83
2023/09/12 02:11:05;;;;;;;10.23;8.70;;;26.20;88.60;;;;;;5077406;28;20037;-83
2023/09/12 02:13:30;;;;;;;12.00;10.77;;;26.20;88.60;;;;;;5077272;28;20032;-83
2023/09/12 02:16:00;;;;;;;10.88;9.55;;;26.20;88.60;;;;;;5075869;28;20093;-83
2023/09/12 02:18:26;;;;;;;12.05;10.05;;;26.20;88.80;;;;;;5077248;28;20032;-85
2023/09/12 02:20:51;;;;;;;12.07;10.20;;;26.20;88.70;;;;;;5076719;28;20477;-85
2023/09/12 02:23:17;;;;;;;7.80;7.00;;;26.20;88.70;;;;;;5075221;28;20366;-85
2023/09/12 02:25:42;;;;;;;9.38;8.43;;;26.20;88.70;;;;;;5059186;28;20036;-85
2023/09/12 02:28:08;;;;;;;10.00;9.00;;;26.20;88.60;;;;;;5076646;28;20024;-85
2023/09/12 02:30:34;;;;;;;13.15;10.68;;;26.20;88.50;;;;;;5076619;28;20033;-84
2023/09/12 02:32:59;;;;;;;12.02;10.13;;;26.20;88.50;;;;;;5059955;28;20040;-85
2023/09/12 02:35:27;;;;;;;11.80;9.63;;;26.10;88.50;;;;;;5077667;28;20063;-84
2023/09/12 02:37:52;;;;;;;11.20;9.95;;;26.10;88.50;;;;;;5077063;28;20025;-83
2023/09/12 02:40:19;;;;;;;10.57;9.43;;;26.10;88.50;;;;;;5075934;28;20036;-83
2023/09/12 02:42:44;;;;;;;10.82;8.90;;;26.10;88.50;;;;;;5076123;28;20063;-83
2023/09/12 02:45:10;;;;;;;7.93;7.15;;;26.10;88.50;;;;;;5075268;28;20029;-83
2023/09/12 02:47:36;;;;;;;8.98;7.78;;;26.10;88.50;;;;;;5076706;28;20389;-83
2023/09/12 02:50:01;;;;;;;10.05;7.88;;;26.10;88.50;;;;;;5076211;28;20055;-83
2023/09/12 02:52:27;;;;;;;9.20;8.10;;;26.00;88.40;;;;;;5075362;28;20037;-83
2023/09/12 02:54:52;;;;;;;11.35;10.15;;;26.00;88.50;;;;;;5076374;28;20028;-83
2023/09/12 02:57:18;;;;;;;9.23;8.05;;;26.00;88.40;;;;;;5058407;28;20036;-83
2023/09/12 02:59:44;;;;;;;7.88;7.07;;;26.00;88.50;;;;;;5075713;28;20033;-85
2023/09/12 03:02:10;;;;;;;8.90;8.00;;;25.90;88.70;;;;;;5057996;28;20032;-88
2023/09/12 03:04:36;;;;;;;10.88;9.18;;;25.90;88.90;;;;;;5076388;28;20513;-87
2023/09/12 03:07:02;;;;;;;8.88;7.97;;;25.90;88.90;;;;;;5075804;28;20037;-87
2023/09/12 03:09:27;;;;;;;9.75;8.75;;;25.80;88.90;;;;;;5076016;28;20051;-87
2023/09/12 03:11:53;;;;;;;9.35;8.45;;;25.80;89.00;;;;;;5058080;28;20033;-83
2023/09/12 03:14:28;;;;;;;8.80;7.95;;;25.80;88.90;;;;;;5076442;28;20373;-88
2023/09/12 03:16:54;;;;;;;14.65;11.88;;;25.80;88.90;;;;;;5057650;28;20056;-88
2023/09/12 03:19:20;;;;;;;12.82;10.68;;;25.80;88.70;;;;;;5057606;28;20070;-89
2023/09/12 03:21:45;;;;;;;11.70;10.20;;;25.80;88.60;;;;;;5057977;28;20056;-88
2023/09/12 03:24:11;;;;;;;13.35;11.38;;;25.90;88.80;;;;;;5075850;28;20086;-86
2023/09/12 03:26:36;;;;;;;9.73;8.73;;;25.80;88.80;;;;;;5075585;28;20032;-86
2023/09/12 03:29:04;;;;;;;10.32;8.48;;;25.80;88.90;;;;;;5075518;28;20373;-87
2023/09/12 03:31:29;;;;;;;9.88;8.63;;;25.80;89.00;;;;;;5075623;28;20036;-86
2023/09/12 03:33:55;;;;;;;9.43;8.50;;;25.70;89.10;;;;;;5073964;28;20029;-87
2023/09/12 03:36:20;;;;;;;9.00;7.50;;;25.70;89.20;;;;;;5074183;28;20063;-86
2023/09/12 03:38:46;;;;;;;10.10;8.63;;;25.80;89.20;;;;;;5058153;28;20115;-87
2023/09/12 03:41:12;;;;;;;14.50;11.18;;;25.70;89.10;;;;;;5075446;28;20040;-88
2023/09/12 03:43:37;;;;;;;14.80;9.65;;;25.80;89.20;;;;;;5075423;28;20056;-87
2023/09/12 03:46:03;;;;;;;11.20;10.02;;;25.80;89.20;;;;;;5074919;28;20029;-87
2023/09/12 03:48:33;;;;;;;9.32;8.40;;;25.80;89.20;;;;;;5075730;28;20060;-88
2023/09/12 03:50:59;;;;;;;10.55;9.05;;;25.80;89.30;;;;;;5074856;28;20465;-89
2023/09/12 03:53:26;;;;;;;10.20;9.20;;;25.70;89.20;;;;;;5075071;28;20036;-88
2023/09/12 03:55:52;;;;;;;10.27;9.07;;;25.70;89.30;;;;;;5074917;28;20032;-88
2023/09/12 03:58:18;;;;;;;10.90;8.65;;;25.70;89.30;;;;;;5075123;28;20115;-86
2023/09/12 04:00:43;;;;;;;11.10;9.40;;;25.70;89.30;;;;;;5074837;28;20065;-86
2023/09/12 04:03:09;;;;;;;11.20;9.82;;;25.80;89.30;;;;;;5074860;28;20040;-86
2023/09/12 04:05:35;;;;;;;10.88;9.23;;;25.80;89.30;;;;;;5075074;28;20449;-89
2023/09/12 04:08:00;;;;;;;9.13;8.20;;;25.80;89.50;;;;;;5074930;28;20032;-88
2023/09/12 04:10:26;;;;;;;11.93;9.98;;;25.80;89.60;;;;;;5074934;28;20099;-90
2023/09/12 04:12:51;;;;;;;13.30;10.88;;;25.70;89.50;;;;;;5076083;28;20074;-88
2023/09/12 04:15:17;;;;;;;9.68;8.30;;;25.70;89.60;;;;;;5074602;28;20028;-88
2023/09/12 04:17:43;;;;;;;17.35;13.23;;;25.70;89.70;;;;;;5074481;28;20025;-87
2023/09/12 04:20:09;;;;;;;14.82;12.77;;;25.70;89.60;;;;;;5074187;28;20350;-86
2023/09/12 04:22:34;;;;;;;15.25;11.50;;;25.70;89.60;;;;;;5075495;28;20515;-87
2023/09/12 04:25:00;;;;;;;20.02;14.93;;;25.70;89.70;;;;;;5060395;28;20115;-87
2023/09/12 04:27:25;;;;;;;15.82;12.35;;;25.70;89.70;;;;;;5077058;28;20028;-85
2023/09/12 04:29:51;;;;;;;17.92;12.55;;;25.60;89.80;;;;;;5059102;28;20036;-86
2023/09/12 04:32:23;;;;;;;11.73;9.95;;;25.60;89.90;;;;;;5074882;28;20039;-86
2023/09/12 04:34:49;;;;;;;13.15;11.77;;;25.60;90.00;;;;;;5078587;28;20456;-85
2023/09/12 04:37:14;;;;;;;14.70;12.57;;;25.60;90.00;;;;;;5076688;28;20040;-85
2023/09/12 04:39:40;;;;;;;14.77;11.82;;;25.60;90.10;;;;;;5058430;28;20354;-86
2023/09/12 04:42:06;;;;;;;16.48;13.45;;;25.60;90.00;;;;;;5075815;28;20033;-86
2023/09/12 04:44:36;;;;;;;14.43;12.68;;;25.60;90.00;;;;;;5075422;28;20057;-86
2023/09/12 04:47:02;;;;;;;13.98;11.20;;;25.60;90.00;;;;;;5056495;28;20111;-86
2023/09/12 04:49:28;;;;;;;15.75;13.20;;;25.50;90.00;;;;;;5074222;28;20051;-86
2023/09/12 04:51:53;;;;;;;16.60;12.98;;;25.50;90.00;;;;;;5074225;28;20392;-85
2023/09/12 04:54:19;;;;;;;16.63;12.85;;;25.50;90.00;;;;;;5072929;28;20040;-87
2023/09/12 04:56:45;;;;;;;20.85;16.35;;;25.50;90.10;;;;;;5074352;28;20028;-87
2023/09/12 04:59:10;;;;;;;21.25;12.18;;;25.50;90.10;;;;;;5056450;28;20407;-88
2023/09/12 05:01:36;;;;;;;23.10;13.95;;;25.50;90.50;;;;;;5074803;28;20032;-87
2023/09/12 05:04:03;;;;;;;13.00;9.25;;;25.40;90.40;;;;;;5073760;28;20032;-77
2023/09/12 05:06:28;;;;;;;9.98;8.13;;;25.50;91.10;;;;;;5073582;28;20104;-78
2023/09/12 05:08:54;;;;;;;16.88;12.05;;;25.60;91.10;;;;;;5055829;28;20123;-78
2023/09/12 05:11:21;;;;;;;17.10;12.25;;;25.70;90.90;;;;;;5073754;28;20408;-79
2023/09/12 05:13:47;;;;;;;16.77;13.32;;;25.80;90.50;;;;;;5073078;28;20035;-78
2023/09/12 05:16:13;;;;;;;23.77;16.75;;;26.00;90.30;;;;;;5073488;28;20072;-79
2023/09/12 05:18:38;;;;;;;18.90;14.57;;;26.00;90.00;;;;;;5073699;28;20477;-78
2023/09/12 05:21:04;;;;;;;21.95;17.20;;;26.10;89.50;;;;;;5074032;28;20357;-78
2023/09/12 05:23:29;;;;;;;23.52;18.88;;;26.10;89.00;;;;;;5073393;28;20525;-77
2023/09/12 05:25:55;;;;;;;26.20;17.48;;;26.20;88.70;;;;;;5073254;28;20036;-78
2023/09/12 05:28:21;;;;;;;19.63;15.60;;;26.20;88.50;;;;;;5073684;28;20055;-79
2023/09/12 05:30:46;;;;;;;23.88;18.08;;;26.20;88.50;;;;;;5055493;28;20064;-78
2023/09/12 05:33:12;;;;;;;35.35;26.63;;;26.30;88.50;;;;;;5073732;28;20032;-78
2023/09/12 05:35:38;;;;;;;37.08;26.42;;;26.20;88.10;;;;;;5072027;28;20024;-77
2023/09/12 05:38:03;;;;;;;33.70;22.77;;;26.00;87.60;;;;;;5055414;28;20315;-78
2023/09/12 05:40:29;;;;;;;33.05;23.05;;;25.90;88.00;;;;;;5072190;28;20027;-78
2023/09/12 05:43:08;;;;;;;32.85;22.83;;;25.80;88.40;;;;;;5090240;27;1294088;-77
2023/09/12 05:45:34;;;;;;;28.88;22.90;;;25.70;88.50;;;;;;5130120;28;20479;-76
2023/09/12 05:48:00;;;;;;;23.88;18.02;;;25.60;88.70;;;;;;5131634;28;20031;-77
2023/09/12 05:50:25;;;;;;;20.15;16.25;;;25.50;88.90;;;;;;5130630;28;20055;-77
2023/09/12 05:52:51;;;;;;;23.92;17.38;;;25.50;89.20;;;;;;5131390;28;20070;-77
2023/09/12 05:55:17;;;;;;;27.75;18.48;;;25.60;89.50;;;;;;5131715;28;20119;-76
2023/09/12 05:57:43;;;;;;;23.10;18.05;;;25.60;89.50;;;;;;5131849;27;20031;-77
2023/09/12 06:00:11;;;;;;;24.15;17.92;;;25.60;89.50;;;;;;5130474;28;20058;-75
2023/09/12 06:02:38;;;;;;;27.17;21.30;;;25.70;89.40;;;;;;5130483;28;20084;-75
2023/09/12 06:05:04;;;;;;;30.88;24.38;;;25.70;89.20;;;;;;5131918;27;20052;-77
2023/09/12 06:07:32;;;;;;;33.33;23.85;;;25.70;88.90;;;;;;5131550;27;20093;-76
2023/09/12 06:09:57;;;;;;;27.40;21.45;;;25.60;89.20;;;;;;5131696;27;20055;-76
2023/09/12 06:12:23;;;;;;;25.75;19.85;;;25.60;89.40;;;;;;5130999;28;20064;-76
2023/09/12 06:14:49;;;;;;;35.55;26.73;;;25.60;89.40;;;;;;5130066;28;20028;-76
2023/09/12 06:17:15;;;;;;;37.85;27.35;;;25.60;89.40;;;;;;5130404;28;20426;-76
2023/09/12 06:19:40;;;;;;;29.40;23.27;;;25.40;89.70;;;;;;5129773;28;20035;-77
2023/09/12 06:22:06;;;;;;;26.65;21.38;;;25.30;90.00;;;;;;5131058;28;20036;-76
2023/09/12 06:24:31;;;;;;;29.88;22.77;;;25.30;90.10;;;;;;5129865;28;20062;-76
2023/09/12 06:26:57;;;;;;;35.38;26.88;;;25.20;90.10;;;;;;5131061;27;20032;-77
2023/09/12 06:29:23;;;;;;;51.58;33.08;;;25.20;90.10;;;;;;5131178;28;20107;-77
2023/09/12 06:31:48;;;;;;;50.10;35.72;;;25.10;90.20;;;;;;5115468;28;20119;-77
2023/09/12 06:34:14;;;;;;;36.80;27.52;;;24.80;90.30;;;;;;5110277;28;20067;-75
2023/09/12 06:36:44;;;;;;;42.42;30.67;;;24.60;90.80;;;;;;5109226;28;20028;-75
2023/09/12 06:39:10;;;;;;;47.00;33.90;;;24.50;91.10;;;;;;5110753;28;20096;-76
2023/09/12 06:41:36;;;;;;;33.17;24.20;;;24.50;91.30;;;;;;5109582;28;20131;-76
2023/09/12 06:44:02;;;;;;;33.45;24.27;;;24.40;91.50;;;;;;5109149;28;20028;-76
2023/09/12 06:46:28;;;;;;;34.90;25.00;;;24.50;91.60;;;;;;5110273;28;20077;-78
2023/09/12 06:48:54;;;;;;;45.60;33.92;;;24.60;91.60;;;;;;5110193;28;20028;-78
2023/09/12 06:51:25;;;;;;;48.63;35.55;;;24.50;91.40;;;;;;5108970;28;20107;-78
2023/09/12 06:53:51;;;;;;;50.45;35.45;;;24.40;91.30;;;;;;5099011;28;20039;-78
2023/09/12 06:56:16;;;;;;;35.83;23.83;;;24.20;91.40;;;;;;5096555;28;20020;-78
2023/09/12 06:58:42;;;;;;;32.83;24.73;;;24.10;91.60;;;;;;5095109;28;20380;-77
2023/09/12 07:01:08;;;;;;;40.13;29.38;;;24.10;91.70;;;;;;5094693;28;20472;-78
2023/09/12 07:03:35;;;;;;;44.83;33.33;;;24.10;91.80;;;;;;5095304;28;20036;-78
2023/09/12 07:06:01;;;;;;;34.72;22.85;;;24.10;91.80;;;;;;5094816;28;20028;-79
2023/09/12 07:08:28;;;;;;;37.13;24.55;;;24.00;91.80;;;;;;5094920;28;20028;-78
2023/09/12 07:10:54;;;;;;;39.92;29.85;;;24.00;92.00;;;;;;5095808;28;20054;-78
2023/09/12 07:13:21;;;;;;;45.97;31.55;;;24.10;92.00;;;;;;5094949;28;20063;-79
2023/09/12 07:15:47;;;;;;;32.58;23.40;;;24.10;91.90;;;;;;5095123;28;20054;-79
2023/09/12 07:18:14;;;;;;;24.70;19.10;;;24.00;92.00;;;;;;5094718;28;20031;-79
2023/09/12 07:20:40;;;;;;;43.00;31.52;;;24.10;92.20;;;;;;5078144;28;20060;-79
2023/09/12 07:23:07;;;;;;;41.15;27.70;;;24.20;92.30;;;;;;5094318;28;20511;-79
2023/09/12 07:25:40;;;;;;;25.33;18.23;;;24.20;92.20;;;;;;5094677;28;20492;-79
2023/09/12 07:28:07;;;;;;;24.75;20.45;;;24.30;92.30;;;;;;5094841;28;20115;-78
2023/09/12 07:30:32;;;;;;;37.90;28.45;;;24.40;92.40;;;;;;5094526;28;20028;-79
2023/09/12 07:32:58;;;;;;;25.83;19.98;;;24.50;92.30;;;;;;5095976;28;20042;-79
2023/09/12 07:35:24;;;;;;;26.00;21.25;;;24.40;92.20;;;;;;5095372;28;20032;-78
2023/09/12 07:37:50;;;;;;;19.02;15.35;;;24.50;92.20;;;;;;5095329;28;20027;-78
2023/09/12 07:40:16;;;;;;;29.75;22.52;;;24.60;92.30;;;;;;5095185;28;20453;-78
2023/09/12 07:42:41;;;;;;;39.03;29.73;;;24.60;92.20;;;;;;5093686;28;20120;-79
2023/09/12 07:45:08;;;;;;;29.85;23.88;;;24.60;92.00;;;;;;5095403;28;20077;-79
2023/09/12 07:47:34;;;;;;;34.30;27.02;;;24.60;92.30;;;;;;5095111;28;20453;-78
2023/09/12 07:50:03;;;;;;;36.63;27.42;;;24.50;92.10;;;;;;5095313;28;20034;-77
2023/09/12 07:52:29;;;;;;;40.78;29.73;;;24.60;92.10;;;;;;5095336;28;20035;-77
2023/09/12 07:55:04;;;;;;;40.72;29.77;;;24.60;92.10;;;;;;5093992;28;20028;-76
2023/09/12 07:57:30;;;;;;;40.63;31.02;;;24.60;91.90;;;;;;5095215;28;20028;-77
2023/09/12 07:59:57;;;;;;;33.30;25.80;;;24.60;91.90;;;;;;5095344;28;20028;-77
2023/09/12 08:02:23;;;;;;;39.72;27.77;;;24.50;92.00;;;;;;5095248;28;20050;-77
2023/09/12 08:04:53;;;;;;;34.78;26.70;;;24.50;92.10;;;;;;5094200;28;20028;-78
2023/09/12 08:07:19;;;;;;;22.13;17.27;;;24.40;92.20;;;;;;5095188;28;20032;-78
2023/09/12 08:09:53;;;;;;;43.20;30.75;;;24.40;92.40;;;;;;5095154;28;20031;-78
2023/09/12 08:12:20;;;;;;;36.03;28.33;;;24.50;92.30;;;;;;5094892;28;20051;-78
2023/09/12 08:14:46;;;;;;;29.45;21.75;;;24.40;92.00;;;;;;5093946;28;20064;-79
2023/09/12 08:17:12;;;;;;;40.50;30.23;;;24.40;92.10;;;;;;5094970;28;20499;-77
2023/09/12 08:19:38;;;;;;;23.65;17.95;;;24.30;92.30;;;;;;5094869;28;20051;-77
2023/09/12 08:22:04;;;;;;;38.28;29.60;;;24.40;92.50;;;;;;5094847;28;20110;-78
2023/09/12 08:24:30;;;;;;;35.22;27.05;;;24.60;92.50;;;;;;5093510;28;20055;-78
2023/09/12 08:26:56;;;;;;;23.50;17.70;;;24.60;92.40;;;;;;5095002;28;20468;-76
2023/09/12 08:29:21;;;;;;;27.63;20.33;;;24.60;92.40;;;;;;5095536;28;20032;-83
2023/09/12 08:31:47;;;;;;;30.30;21.85;;;24.80;92.90;;;;;;5094460;28;20066;-82
2023/09/12 08:34:13;;;;;;;31.05;23.48;;;24.80;92.80;;;;;;5094791;28;20041;-82
2023/09/12 08:36:39;;;;;;;25.15;19.67;;;25.00;92.50;;;;;;5094516;28;20024;-83
2023/09/12 08:39:08;;;;;;;42.35;29.73;;;25.00;92.10;;;;;;5093077;28;20032;-83
2023/09/12 08:41:33;;;;;;;31.15;24.38;;;25.00;91.80;;;;;;5094285;28;20071;-83
2023/09/12 08:44:01;;;;;;;29.75;23.83;;;25.10;91.90;;;;;;5093364;28;20055;-84
2023/09/12 08:46:27;;;;;;;33.72;26.85;;;25.10;91.60;;;;;;5095306;28;20020;-82
2023/09/12 08:48:55;;;;;;;22.30;17.58;;;25.10;91.20;;;;;;5094036;28;20024;-84
2023/09/12 08:51:26;;;;;;;19.85;16.20;;;25.10;91.20;;;;;;5093561;28;20036;-85
2023/09/12 08:53:52;;;;;;;29.17;22.00;;;25.10;91.50;;;;;;5094689;28;20131;-85
2023/09/12 08:56:19;;;;;;;29.00;22.23;;;25.30;91.60;;;;;;5094410;28;20025;-83
2023/09/12 08:58:45;;;;;;;34.10;26.33;;;25.30;90.60;;;;;;5094079;28;20026;-83
2023/09/12 09:01:16;;;;;;;35.00;25.00;;;25.10;90.50;;;;;;5093036;28;20502;-86
2023/09/12 09:03:43;;;;;;;31.98;22.38;;;25.10;90.70;;;;;;5093930;28;20067;-85
2023/09/12 09:06:10;;;;;;;30.00;23.55;;;25.10;90.90;;;;;;5092910;28;20029;-87
2023/09/12 09:08:36;;;;;;;33.22;23.73;;;25.20;90.90;;;;;;5093854;28;20024;-87
2023/09/12 09:11:03;;;;;;;29.40;21.52;;;25.40;90.70;;;;;;5093740;28;20052;-86
2023/09/12 09:13:29;;;;;;;19.27;14.27;;;25.40;90.70;;;;;;5093450;28;20078;-86
2023/09/12 09:16:14;;;;;;;21.25;15.40;;;25.60;90.80;;;;;;5093795;28;20024;-87
2023/09/12 09:19:02;;;;;;;18.08;14.10;;;25.70;90.90;;;;;;5092931;28;20054;-86
2023/09/12 09:21:32;;;;;;;22.65;17.58;;;25.80;90.70;;;;;;5093838;28;20032;-88
2023/09/12 09:24:17;;;;;;;27.92;20.98;;;26.00;90.40;;;;;;5092830;28;20054;-86
2023/09/12 09:26:49;;;;;;;24.17;19.48;;;26.10;90.20;;;;;;5094298;28;20457;-85
2023/09/12 09:29:17;;;;;;;25.27;18.88;;;26.20;89.20;;;;;;5093898;28;20017;-84
2023/09/12 09:31:45;;;;;;;27.52;20.83;;;26.10;88.00;;;;;;5093836;28;20437;-86
2023/09/12 09:34:16;;;;;;;24.33;17.13;;;26.10;87.80;;;;;;5092467;28;20032;-87
2023/09/12 09:36:52;;;;;;;22.58;18.30;;;26.10;88.80;;;;;;5093798;28;20024;-86
2023/09/12 09:39:19;;;;;;;24.13;17.90;;;26.20;88.40;;;;;;5093804;28;20035;-84
2023/09/12 09:41:49;;;;;;;19.25;15.20;;;26.30;88.10;;;;;;5093594;28;20051;-85
2023/09/12 09:44:15;;;;;;;19.88;15.55;;;26.30;87.50;;;;;;5092933;28;20032;-83
2023/09/12 09:46:44;;;;;;;20.23;14.75;;;26.20;86.50;;;;;;5093679;28;20101;-83
2023/09/12 09:49:17;;;;;;;20.70;15.13;;;26.20;86.50;;;;;;5093816;28;20043;-84
2023/09/12 09:51:44;;;;;;;23.73;17.88;;;26.30;86.90;;;;;;5094979;28;20032;-83
2023/09/12 09:54:11;;;;;;;18.33;14.80;;;26.40;87.40;;;;;;5095933;28;20024;-83
2023/09/12 09:56:47;;;;;;;18.85;15.52;;;26.40;86.00;;;;;;5095182;28;20032;-83
2023/09/12 09:59:17;;;;;;;23.73;18.13;;;26.60;86.70;;;;;;5094847;28;20107;-86
2023/09/12 10:01:44;;;;;;;20.45;15.85;;;26.70;87.30;;;;;;5094204;28;20162;-84
2023/09/12 10:04:10;;;;;;;21.67;16.90;;;26.70;86.40;;;;;;5092730;28;20105;-85
2023/09/12 10:06:37;;;;;;;18.10;14.05;;;26.40;84.40;;;;;;5092091;28;20474;-83
2023/09/12 10:09:10;;;;;;;18.50;14.50;;;26.20;86.00;;;;;;5092030;28;20072;-84
2023/09/12 10:11:38;;;;;;;15.77;13.75;;;26.20;85.90;;;;;;5093364;28;20391;-85
2023/09/12 10:14:05;;;;;;;18.60;13.90;;;26.10;85.50;;;;;;5093484;28;20027;-84
2023/09/12 10:16:36;;;;;;;17.40;14.30;;;26.10;85.00;;;;;;5092275;28;20107;-84
2023/09/12 10:19:06;;;;;;;19.98;12.77;;;26.00;85.10;;;;;;5092041;28;20020;-85
2023/09/12 10:21:35;;;;;;;16.52;14.18;;;25.90;84.90;;;;;;5093721;28;20030;-84
2023/09/12 10:24:03;;;;;;;19.98;14.27;;;25.80;85.10;;;;;;5091990;28;20032;-85
2023/09/12 10:26:31;;;;;;;16.20;11.93;;;25.80;85.50;;;;;;5093271;28;20345;-84
2023/09/12 10:28:59;;;;;;;14.50;11.93;;;25.90;85.20;;;;;;5095252;28;20020;-82
2023/09/12 10:31:26;;;;;;;17.38;12.52;;;25.90;85.30;;;;;;5096805;28;20082;-84
2023/09/12 10:33:53;;;;;;;12.30;9.07;;;26.00;85.40;;;;;;5096850;28;20032;-83
2023/09/12 10:36:20;;;;;;;12.48;10.43;;;26.00;84.30;;;;;;5097186;28;20065;-84
2023/09/12 10:38:48;;;;;;;14.73;9.95;;;26.00;83.80;;;;;;5096990;28;20028;-84
2023/09/12 10:41:15;;;;;;;16.40;10.15;;;26.00;83.10;;;;;;5096482;28;20032;-82
2023/09/12 10:43:43;;;;;;;10.57;8.52;;;26.00;83.90;;;;;;5095186;28;20028;-82
2023/09/12 10:46:09;;;;;;;11.05;8.82;;;26.10;83.90;;;;;;5096170;28;20028;-83
2023/09/12 10:48:36;;;;;;;10.35;8.57;;;26.30;84.60;;;;;;5097312;28;20028;-82
2023/09/12 10:51:04;;;;;;;13.13;8.32;;;26.30;84.30;;;;;;5095352;28;20047;-80
2023/09/12 10:53:31;;;;;;;9.85;7.35;;;26.40;83.60;;;;;;5097107;28;20032;-81
2023/09/12 10:56:09;;;;;;;12.07;8.05;;;26.50;84.40;;;;;;5096691;28;20028;-81
2023/09/12 10:59:06;;;;;;;7.18;5.68;;;26.50;84.20;;;;;;5097407;28;20039;-81
2023/09/12 11:01:53;;;;;;;12.80;8.82;;;26.60;82.80;;;;;;5096454;28;20035;-81
2023/09/12 11:04:19;;;;;;;11.10;8.10;;;26.70;82.80;;;;;;5096151;28;20127;-82
2023/09/12 11:06:46;;;;;;;12.25;9.45;;;26.90;83.10;;;;;;5096624;28;20066;-82
2023/09/12 11:09:32;;;;;;;17.13;12.35;;;27.10;82.50;;;;;;5096187;28;20032;-81
2023/09/12 11:12:08;;;;;;;14.85;12.07;;;27.10;81.80;;;;;;5096449;28;20044;-84
2023/09/12 11:14:33;;;;;;;9.63;6.57;;;27.20;81.10;;;;;;5096404;28;20031;-84
2023/09/12 11:17:23;;;;;;;16.45;11.00;;;27.20;82.10;;;;;;5095179;28;20429;-84
2023/09/12 11:19:52;;;;;;;11.80;9.50;;;27.30;83.00;;;;;;5089344;28;20041;-81
2023/09/12 11:22:31;;;;;;;13.05;9.88;;;27.40;81.90;;;;;;5096560;28;20032;-83
2023/09/12 11:25:01;;;;;;;10.75;8.35;;;27.40;84.00;;;;;;5095418;28;20058;-83
2023/09/12 11:27:32;;;;;;;10.30;7.85;;;27.50;82.00;;;;;;5095399;28;20115;-82
2023/09/12 11:30:05;;;;;;;14.52;9.35;;;27.70;80.00;;;;;;5095235;28;20032;-85
2023/09/12 11:32:32;;;;;;;9.73;8.27;;;27.80;79.80;;;;;;5096139;28;20078;-84
2023/09/12 11:35:04;;;;;;;10.63;6.93;;;27.90;79.80;;;;;;5096017;28;20440;-85
2023/09/12 11:37:30;;;;;;;13.25;6.65;;;28.00;80.90;;;;;;5096074;28;20032;-86
2023/09/12 11:39:57;;;;;;;10.82;6.03;;;28.10;80.20;;;;;;5096120;28;20486;-86
2023/09/12 11:42:25;;;;;;;6.65;5.22;;;28.30;79.60;;;;;;5095677;28;20059;-85
2023/09/12 11:44:52;;;;;;;8.10;5.80;;;28.50;78.90;;;;;;5094001;28;20085;-83
2023/09/12 11:47:18;;;;;;;7.00;5.38;;;28.70;78.30;;;;;;5077757;28;20028;-86
2023/09/12 11:49:43;;;;;;;7.57;4.57;;;28.70;77.70;;;;;;5095580;28;20454;-86
2023/09/12 11:52:12;;;;;;;9.30;4.90;;;28.70;77.80;;;;;;5094473;28;20127;-86
2023/09/12 11:54:39;;;;;;;9.13;7.13;;;28.90;78.20;;;;;;5095835;28;20036;-86
2023/09/12 11:57:08;;;;;;;4.50;3.40;;;29.00;76.30;;;;;;5095549;28;20483;-85
2023/09/12 11:59:37;;;;;;;7.07;4.18;;;29.10;76.50;;;;;;5096282;28;20032;-85
2023/09/12 12:02:07;;;;;;;4.65;4.22;;;29.30;77.50;;;;;;5094524;28;20028;-87
2023/09/12 12:04:34;;;;;;;5.95;4.15;;;29.40;77.00;;;;;;5095422;28;20028;-83
2023/09/12 12:07:01;;;;;;;4.28;3.58;;;29.50;76.00;;;;;;5095198;28;20047;-83
2023/09/12 12:09:27;;;;;;;5.93;4.20;;;29.50;76.20;;;;;;5095233;28;20024;-83
2023/09/12 12:11:53;;;;;;;4.82;4.35;;;29.40;75.90;;;;;;5095066;28;20456;-85
2023/09/12 12:14:19;;;;;;;5.35;3.65;;;29.30;76.00;;;;;;5094802;28;20061;-86
2023/09/12 12:16:46;;;;;;;9.85;6.38;;;29.30;76.60;;;;;;5095157;28;20392;-86
2023/09/12 12:19:13;;;;;;;7.38;6.20;;;29.50;76.20;;;;;;5093360;28;20060;-85
2023/09/12 12:21:40;;;;;;;8.77;7.47;;;29.50;75.00;;;;;;5095414;28;20032;-86
2023/09/12 12:24:13;;;;;;;7.20;5.05;;;29.60;74.80;;;;;;5095387;28;20068;-86
2023/09/12 12:26:42;;;;;;;5.72;3.60;;;29.50;74.80;;;;;;5096971;28;20032;-85
2023/09/12 12:29:10;;;;;;;7.60;4.57;;;29.60;75.40;;;;;;5094704;28;20055;-87
2023/09/12 12:31:36;;;;;;;6.30;4.72;;;29.70;76.20;;;;;;5093973;28;20036;-88